createdAt,value
2023-04-24T00:01:08.791Z,31.15
2023-04-24T00:03:37.233Z,31.30
2023-04-24T00:06:07.779Z,31.51
2023-04-24T00:08:36.077Z,31.08
2023-04-24T00:11:04.146Z,31.17
2023-04-24T00:13:32.459Z,31.06
2023-04-24T00:16:00.374Z,31.22
2023-04-24T00:18:28.433Z,31.33
2023-04-24T00:20:56.566Z,31.37
2023-04-24T00:23:25.920Z,30.97
2023-04-24T00:25:53.892Z,31.09
2023-04-24T00:28:22.021Z,31.15
2023-04-24T00:30:50.074Z,31.01
2023-04-24T00:33:18.167Z,31.26
2023-04-24T00:35:46.144Z,31.17
2023-04-24T00:38:14.241Z,31.42
2023-04-24T00:40:45.201Z,30.99
2023-04-24T00:43:13.318Z,31.01
2023-04-24T00:45:41.872Z,31.24
2023-04-24T00:48:10.139Z,31.00
2023-04-24T00:50:38.595Z,30.94
2023-04-24T00:53:06.767Z,31.16
2023-04-24T00:55:34.836Z,31.08
2023-04-24T00:58:04.194Z,31.10
2023-04-24T01:00:32.697Z,30.75
2023-04-24T01:03:03.882Z,31.00
2023-04-24T01:05:32.348Z,31.10
2023-04-24T01:08:01.394Z,31.19
2023-04-24T01:10:31.566Z,31.17
2023-04-24T01:13:00.231Z,30.83
2023-04-24T01:15:29.536Z,30.92
2023-04-24T01:17:58.202Z,31.16
2023-04-24T01:20:27.913Z,30.96
2023-04-24T01:22:58.467Z,30.83
2023-04-24T01:25:29.978Z,31.22
2023-04-24T01:27:59.212Z,31.22
2023-04-24T01:30:27.318Z,30.92
2023-04-24T01:32:55.766Z,30.86
2023-04-24T01:35:23.979Z,31.02
2023-04-24T01:37:52.110Z,31.22
2023-04-24T01:40:21.606Z,31.22
2023-04-24T01:42:49.846Z,30.97
2023-04-24T01:45:17.988Z,30.97
2023-04-24T01:47:47.094Z,30.90
2023-04-24T01:50:15.691Z,30.93
2023-04-24T01:52:43.850Z,30.93
2023-04-24T01:55:12.638Z,31.05
2023-04-24T01:57:42.299Z,31.07
2023-04-24T02:00:12.259Z,31.04
2023-04-24T02:02:46.528Z,30.91
2023-04-24T02:05:16.314Z,30.93
2023-04-24T02:07:44.318Z,31.21
2023-04-24T02:10:13.160Z,31.21
2023-04-24T02:12:45.720Z,30.97
2023-04-24T02:15:14.092Z,30.76
2023-04-24T02:17:42.287Z,30.94
2023-04-24T02:20:10.392Z,30.82
2023-04-24T02:22:40.116Z,30.75
2023-04-24T02:25:09.078Z,30.99
2023-04-24T02:27:37.100Z,30.96
2023-04-24T02:30:10.440Z,30.56
2023-04-24T02:32:40.077Z,30.62
2023-04-24T02:35:09.005Z,30.69
2023-04-24T02:37:37.013Z,30.56
2023-04-24T02:40:06.886Z,30.66
2023-04-24T02:42:34.993Z,30.68
2023-04-24T02:45:03.192Z,30.41
2023-04-24T02:47:32.832Z,30.62
2023-04-24T02:50:01.821Z,30.75
2023-04-24T02:52:29.900Z,30.56
2023-04-24T02:54:57.937Z,30.70
2023-04-24T02:57:26.088Z,30.33
2023-04-24T02:59:54.187Z,30.25
2023-04-24T03:02:22.796Z,30.31
2023-04-24T03:04:52.324Z,30.09
2023-04-24T03:07:22.240Z,30.51
2023-04-24T03:09:50.262Z,30.49
2023-04-24T03:12:19.015Z,30.53
2023-04-24T03:14:46.966Z,30.41
2023-04-24T03:17:14.989Z,30.06
2023-04-24T03:19:43.179Z,30.20
2023-04-24T03:22:14.651Z,30.35
2023-04-24T03:24:43.287Z,29.98
2023-04-24T03:27:11.265Z,30.29
2023-04-24T03:29:57.745Z,29.97
2023-04-24T03:32:37.989Z,30.30
2023-04-24T03:35:07.444Z,30.39
2023-04-24T03:37:36.875Z,30.38
2023-04-24T03:40:31.082Z,29.96
2023-04-24T03:43:00.352Z,29.96
2023-04-24T03:45:28.446Z,30.13
2023-04-24T03:47:56.556Z,30.23
2023-04-24T03:50:24.651Z,30.04
2023-04-24T03:52:54.036Z,29.99
2023-04-24T03:55:34.196Z,29.79
2023-04-24T03:58:02.492Z,30.34
2023-04-24T04:00:34.117Z,29.89
2023-04-24T04:03:22.350Z,30.25
2023-04-24T04:05:51.356Z,30.10
2023-04-24T04:08:20.628Z,29.84
2023-04-24T04:10:49.922Z,30.10
2023-04-24T04:13:17.860Z,29.84
2023-04-24T04:15:46.518Z,30.30
2023-04-24T04:18:14.882Z,29.91
2023-04-24T04:20:42.944Z,30.20
2023-04-24T04:23:13.111Z,30.06
2023-04-24T04:26:06.122Z,30.13
2023-04-24T04:28:59.956Z,29.80
2023-04-24T04:31:28.143Z,29.83
2023-04-24T04:33:58.008Z,30.24
2023-04-24T04:36:26.991Z,30.11
2023-04-24T04:39:03.779Z,29.89
2023-04-24T04:41:50.041Z,30.05
2023-04-24T04:44:20.056Z,29.85
2023-04-24T04:46:48.755Z,30.22
2023-04-24T04:49:25.693Z,30.17
2023-04-24T04:51:54.085Z,30.19
2023-04-24T04:54:23.456Z,29.93
2023-04-24T04:56:53.717Z,30.06
2023-04-24T04:59:22.028Z,30.17
2023-04-24T05:01:53.478Z,29.91
2023-04-24T05:04:22.393Z,30.13
2023-04-24T05:06:53.242Z,29.94
2023-04-24T05:09:23.259Z,30.22
2023-04-24T05:11:58.760Z,30.19
2023-04-24T05:14:28.734Z,30.09
2023-04-24T05:16:57.547Z,29.96
2023-04-24T05:19:27.529Z,29.91
2023-04-24T05:21:55.867Z,30.40
2023-04-24T05:24:24.348Z,30.33
2023-04-24T05:27:28.923Z,30.07
2023-04-24T05:29:57.621Z,30.20
2023-04-24T05:32:25.669Z,30.44
2023-04-24T05:34:53.724Z,30.16
2023-04-24T05:37:21.777Z,30.11
2023-04-24T05:39:49.917Z,30.13
2023-04-24T05:42:17.909Z,30.11
2023-04-24T05:44:47.329Z,30.08
2023-04-24T05:47:15.450Z,30.18
2023-04-24T05:49:44.038Z,30.48
2023-04-24T05:52:12.184Z,30.43
2023-04-24T05:54:41.875Z,30.08
2023-04-24T05:57:11.793Z,30.14
2023-04-24T05:59:52.352Z,30.18
2023-04-24T06:02:22.385Z,30.39
2023-04-24T06:04:50.564Z,30.42
2023-04-24T06:07:19.491Z,30.36
2023-04-24T06:09:48.156Z,30.15
2023-04-24T06:12:16.654Z,30.55
2023-04-24T06:14:56.470Z,30.49
2023-04-24T06:17:38.391Z,30.52
2023-04-24T06:20:08.979Z,30.53
2023-04-24T06:22:37.400Z,30.09
2023-04-24T06:25:06.728Z,30.46
2023-04-24T06:27:34.961Z,30.16
2023-04-24T06:30:05.118Z,30.34
2023-04-24T06:32:34.996Z,30.58
2023-04-24T06:35:03.058Z,30.29
2023-04-24T06:37:31.467Z,30.62
2023-04-24T06:39:59.443Z,30.37
2023-04-24T06:42:27.358Z,30.34
2023-04-24T06:44:57.116Z,30.67
2023-04-24T06:47:26.585Z,30.77
2023-04-24T06:49:56.127Z,30.85
2023-04-24T06:52:24.107Z,31.18
2023-04-24T06:54:52.237Z,31.27
2023-04-24T06:57:20.998Z,31.49
2023-04-24T06:59:49.207Z,31.85
2023-04-24T07:02:17.261Z,31.94
2023-04-24T07:04:48.543Z,31.84
2023-04-24T07:07:17.607Z,31.83
2023-04-24T07:09:46.496Z,31.78
2023-04-24T07:12:14.601Z,31.45
2023-04-24T07:14:42.585Z,31.25
2023-04-24T07:17:10.637Z,31.17
2023-04-24T07:19:38.672Z,31.37
2023-04-24T07:22:08.175Z,31.05
2023-04-24T07:24:36.375Z,31.37
2023-04-24T07:27:04.410Z,30.95
2023-04-24T07:29:32.430Z,31.13
2023-04-24T07:32:02.094Z,31.14
2023-04-24T07:34:31.967Z,31.02
2023-04-24T07:36:59.952Z,30.64
2023-04-24T07:39:30.259Z,30.97
2023-04-24T07:41:59.600Z,30.54
2023-04-24T07:44:27.451Z,30.97
2023-04-24T07:46:55.898Z,30.62
2023-04-24T07:49:23.979Z,30.85
2023-04-24T07:51:52.084Z,30.36
2023-04-24T07:54:20.060Z,30.45
2023-04-24T07:56:50.646Z,30.65
2023-04-24T07:59:18.741Z,30.19
2023-04-24T08:01:46.854Z,30.42
2023-04-24T08:04:15.137Z,30.27
2023-04-24T08:06:43.285Z,30.37
2023-04-24T08:09:11.442Z,30.07
2023-04-24T08:11:39.476Z,30.26
2023-04-24T08:14:08.946Z,30.17
2023-04-24T08:16:37.602Z,30.28
2023-04-24T08:19:05.920Z,29.87
2023-04-24T08:21:34.005Z,29.89
2023-04-24T08:24:06.078Z,29.82
2023-04-24T08:26:34.211Z,30.17
2023-04-24T08:29:02.293Z,29.72
2023-04-24T08:31:31.745Z,29.72
2023-04-24T08:34:00.940Z,29.67
2023-04-24T08:36:43.513Z,29.71
2023-04-24T08:39:14.515Z,29.63
2023-04-24T08:41:44.058Z,29.71
2023-04-24T08:44:13.741Z,29.79
2023-04-24T08:46:44.769Z,29.40
2023-04-24T08:49:14.250Z,29.53
2023-04-24T08:51:42.280Z,29.55
2023-04-24T08:54:10.601Z,29.77
2023-04-24T08:56:40.408Z,29.72
2023-04-24T08:59:08.708Z,29.34
2023-04-24T09:01:40.895Z,29.35
2023-04-24T09:04:13.327Z,29.33
2023-04-24T09:06:41.996Z,29.64
2023-04-24T09:09:12.788Z,29.46
2023-04-24T09:11:41.002Z,29.57
2023-04-24T09:14:10.382Z,29.49
2023-04-24T09:16:38.657Z,29.62
2023-04-24T09:19:06.702Z,29.33
2023-04-24T09:21:37.133Z,29.37
2023-04-24T09:24:08.208Z,29.54
2023-04-24T09:26:38.308Z,29.19
2023-04-24T09:29:06.924Z,29.27
2023-04-24T09:31:35.139Z,29.31
2023-04-24T09:34:08.326Z,29.72
2023-04-24T09:36:39.293Z,29.75
2023-04-24T09:39:09.218Z,29.65
2023-04-24T09:41:45.318Z,29.33
2023-04-24T09:44:15.318Z,29.50
2023-04-24T09:46:44.270Z,29.18
2023-04-24T09:49:16.439Z,29.66
2023-04-24T09:51:45.993Z,29.38
2023-04-24T09:54:18.280Z,29.62
2023-04-24T09:56:47.561Z,29.45
2023-04-24T09:59:16.021Z,29.17
2023-04-24T10:01:45.686Z,29.58
2023-04-24T10:04:21.597Z,29.33
2023-04-24T10:06:52.708Z,29.23
2023-04-24T10:09:21.800Z,29.01
2023-04-24T10:11:51.231Z,29.37
2023-04-24T10:14:21.591Z,29.15
2023-04-24T10:16:50.566Z,29.46
2023-04-24T10:19:21.089Z,29.01
2023-04-24T10:21:50.845Z,29.20
2023-04-24T10:24:21.436Z,29.11
2023-04-24T10:26:50.078Z,29.25
2023-04-24T10:29:22.413Z,29.35
2023-04-24T10:31:50.662Z,29.42
2023-04-24T10:34:22.566Z,29.17
2023-04-24T10:36:56.537Z,29.29
2023-04-24T10:39:27.897Z,28.94
2023-04-24T10:41:58.516Z,29.26
2023-04-24T10:44:27.746Z,29.05
2023-04-24T10:46:57.787Z,29.07
2023-04-24T10:49:31.888Z,28.96
2023-04-24T10:52:06.700Z,29.23
2023-04-24T10:54:37.989Z,29.15
2023-04-24T10:57:31.015Z,28.93
2023-04-24T11:00:32.330Z,29.26
2023-04-24T11:03:00.682Z,29.24
2023-04-24T11:05:54.541Z,28.97
2023-04-24T11:08:28.864Z,29.31
2023-04-24T11:11:02.790Z,28.84
2023-04-24T11:14:07.416Z,29.00
2023-04-24T11:16:39.580Z,29.11
2023-04-24T11:19:09.227Z,29.19
2023-04-24T11:21:45.156Z,29.09
2023-04-24T11:24:28.947Z,29.08
2023-04-24T11:26:58.972Z,28.88
2023-04-24T11:29:41.714Z,29.19
2023-04-24T11:32:27.743Z,28.98
2023-04-24T11:34:57.865Z,29.13
2023-04-24T11:37:28.184Z,29.18
2023-04-24T11:39:58.884Z,28.93
2023-04-24T11:42:27.251Z,28.92
2023-04-24T11:44:56.513Z,28.77
2023-04-24T11:47:31.088Z,28.78
2023-04-24T11:50:00.527Z,28.75
2023-04-24T11:52:29.508Z,29.20
2023-04-24T11:54:59.550Z,28.97
2023-04-24T11:57:29.977Z,28.97
2023-04-24T11:59:57.955Z,28.83
2023-04-24T12:02:26.889Z,29.06
2023-04-24T12:04:56.378Z,28.90
2023-04-24T12:07:25.922Z,28.78
2023-04-24T12:10:00.567Z,28.95
2023-04-24T12:12:30.096Z,28.82
2023-04-24T12:14:59.964Z,28.97
2023-04-24T12:17:29.821Z,28.82
2023-04-24T12:20:02.428Z,28.97
2023-04-24T12:22:31.281Z,29.17
2023-04-24T12:25:06.439Z,28.94
2023-04-24T12:27:35.171Z,28.89
2023-04-24T12:30:06.337Z,29.15
2023-04-24T12:32:34.713Z,28.93
2023-04-24T12:35:07.055Z,29.32
2023-04-24T12:37:37.476Z,29.17
2023-04-24T12:40:09.712Z,29.21
2023-04-24T12:42:43.672Z,29.51
2023-04-24T12:45:13.153Z,29.63
2023-04-24T12:47:42.216Z,29.61
2023-04-24T12:50:11.735Z,29.65
2023-04-24T12:52:40.359Z,29.53
2023-04-24T12:55:10.535Z,29.57
2023-04-24T12:57:40.150Z,29.66
2023-04-24T13:00:10.436Z,30.05
2023-04-24T13:02:38.581Z,31.20
2023-04-24T13:05:07.129Z,32.01
2023-04-24T13:07:35.267Z,32.72
2023-04-24T13:10:03.307Z,32.70
2023-04-24T13:12:32.683Z,32.51
2023-04-24T13:15:01.118Z,32.50
2023-04-24T13:17:29.205Z,32.21
2023-04-24T13:19:57.823Z,31.51
2023-04-24T13:22:26.004Z,31.32
2023-04-24T13:24:54.110Z,31.53
2023-04-24T13:27:22.102Z,31.02
2023-04-24T13:29:52.189Z,31.22
2023-04-24T13:32:20.579Z,31.14
2023-04-24T13:34:48.960Z,31.02
2023-04-24T13:37:17.043Z,30.72
2023-04-24T13:39:45.130Z,30.81
2023-04-24T13:42:13.781Z,30.35
2023-04-24T13:44:42.603Z,30.43
2023-04-24T13:47:12.009Z,30.66
2023-04-24T13:49:40.052Z,30.47
2023-04-24T13:52:08.345Z,30.00
2023-04-24T13:54:36.337Z,30.26
2023-04-24T13:57:05.342Z,30.20
2023-04-24T13:59:33.521Z,29.96
2023-04-24T14:02:01.670Z,30.03
2023-04-24T14:04:31.181Z,29.93
2023-04-24T14:06:59.435Z,29.85
2023-04-24T14:09:27.531Z,29.88
2023-04-24T14:11:55.606Z,29.84
2023-04-24T14:14:23.677Z,29.86
2023-04-24T14:16:51.937Z,29.39
2023-04-24T14:19:20.057Z,29.56
2023-04-24T14:21:50.023Z,29.37
2023-04-24T14:24:17.994Z,29.49
2023-04-24T14:26:46.037Z,29.58
2023-04-24T14:29:15.401Z,29.35
2023-04-24T14:31:43.922Z,29.53
2023-04-24T14:34:11.870Z,29.41
2023-04-24T14:36:39.964Z,29.35
2023-04-24T14:39:09.713Z,29.23
2023-04-24T14:41:38.524Z,29.18
2023-04-24T14:44:06.699Z,29.52
2023-04-24T14:46:35.105Z,29.32
2023-04-24T14:49:03.230Z,29.37
2023-04-24T14:51:31.450Z,29.55
2023-04-24T14:54:00.249Z,29.21
2023-04-24T14:56:29.734Z,29.38
2023-04-24T14:58:57.762Z,29.44
2023-04-24T15:01:26.423Z,29.08
2023-04-24T15:03:55.000Z,29.41
2023-04-24T15:06:23.269Z,29.29
2023-04-24T15:08:54.189Z,29.29
2023-04-24T15:11:22.348Z,28.87
2023-04-24T15:13:52.080Z,28.97
2023-04-24T15:16:20.272Z,28.92
2023-04-24T15:18:48.378Z,29.16
2023-04-24T15:21:16.403Z,29.05
2023-04-24T15:23:44.602Z,29.17
2023-04-24T15:26:12.770Z,28.81
2023-04-24T15:28:40.818Z,28.82
2023-04-24T15:31:10.218Z,28.91
2023-04-24T15:33:38.296Z,28.82
2023-04-24T15:36:06.911Z,28.81
2023-04-24T15:38:35.095Z,28.83
2023-04-24T15:41:03.194Z,28.89
2023-04-24T15:43:35.083Z,28.94
2023-04-24T15:46:03.484Z,28.70
2023-04-24T15:48:33.448Z,28.68
2023-04-24T15:51:04.777Z,28.47
2023-04-24T15:53:32.991Z,28.43
2023-04-24T15:56:01.164Z,28.37
2023-04-24T15:58:29.217Z,28.37
2023-04-24T16:00:57.249Z,28.59
2023-04-24T16:03:25.600Z,28.33
2023-04-24T16:05:55.462Z,28.53
2023-04-24T16:08:23.657Z,28.33
2023-04-24T16:10:52.684Z,28.58
2023-04-24T16:13:20.918Z,28.57
2023-04-24T16:15:49.854Z,28.17
2023-04-24T16:18:18.506Z,28.56
2023-04-24T16:20:46.798Z,28.25
2023-04-24T16:23:16.294Z,28.20
2023-04-24T16:25:44.262Z,28.23
2023-04-24T16:28:12.842Z,28.27
2023-04-24T16:30:40.924Z,28.15
2023-04-24T16:33:10.912Z,28.21
2023-04-24T16:35:39.009Z,28.25
2023-04-24T16:38:07.022Z,28.07
2023-04-24T16:40:36.545Z,28.25
2023-04-24T16:43:04.693Z,28.13
2023-04-24T16:45:32.643Z,28.13
2023-04-24T16:48:00.852Z,27.76
2023-04-24T16:50:28.865Z,28.01
2023-04-24T16:52:56.922Z,27.98
2023-04-24T16:55:25.430Z,27.91
2023-04-24T16:57:54.815Z,28.05
2023-04-24T17:00:22.863Z,27.66
2023-04-24T17:02:51.197Z,28.02
2023-04-24T17:05:21.264Z,28.03
2023-04-24T17:07:49.331Z,27.71
2023-04-24T17:10:17.634Z,27.93
2023-04-24T17:12:45.613Z,27.82
2023-04-24T17:15:15.049Z,27.83
2023-04-24T17:17:44.319Z,28.08
2023-04-24T17:20:21.965Z,27.83
2023-04-24T17:22:51.229Z,28.14
2023-04-24T17:25:19.352Z,27.75
2023-04-24T17:27:47.538Z,27.84
2023-04-24T17:30:17.693Z,27.76
2023-04-24T17:32:46.356Z,27.68
2023-04-24T17:35:14.492Z,28.10
2023-04-24T17:37:42.539Z,28.03
2023-04-24T17:40:11.521Z,28.00
2023-04-24T17:42:41.529Z,28.00
2023-04-24T17:45:11.321Z,27.98
2023-04-24T17:47:41.077Z,28.12
2023-04-24T17:50:09.803Z,28.12
2023-04-24T17:52:37.764Z,28.29
2023-04-24T17:55:06.617Z,27.94
2023-04-24T17:57:34.691Z,27.75
2023-04-24T18:00:02.967Z,28.15
2023-04-24T18:02:33.830Z,27.95
2023-04-24T18:05:03.652Z,28.30
2023-04-24T18:07:31.596Z,27.93
2023-04-24T18:09:59.606Z,28.23
2023-04-24T18:12:28.063Z,28.19
2023-04-24T18:15:10.425Z,28.33
2023-04-24T18:17:41.759Z,28.20
2023-04-24T18:20:12.412Z,28.31
2023-04-24T18:22:40.759Z,28.10
2023-04-24T18:25:09.855Z,28.23
2023-04-24T18:27:38.534Z,28.37
2023-04-24T18:30:07.828Z,28.25
2023-04-24T18:32:36.293Z,28.49
2023-04-24T18:35:04.979Z,28.31
2023-04-24T18:37:34.604Z,28.30
2023-04-24T18:40:03.581Z,28.25
2023-04-24T18:42:31.942Z,28.49
2023-04-24T18:45:01.845Z,28.70
2023-04-24T18:47:30.119Z,28.30
2023-04-24T18:49:58.194Z,28.65
2023-04-24T18:52:26.593Z,28.23
2023-04-24T18:54:56.044Z,28.56
2023-04-24T18:57:25.327Z,28.64
2023-04-24T18:59:53.896Z,28.37
2023-04-24T19:02:22.218Z,28.39
2023-04-24T19:04:50.343Z,28.34
2023-04-24T19:07:19.371Z,28.54
2023-04-24T19:09:47.380Z,28.45
2023-04-24T19:12:16.952Z,28.76
2023-04-24T19:14:45.786Z,28.65
2023-04-24T19:17:14.108Z,28.41
2023-04-24T19:19:42.117Z,28.74
2023-04-24T19:22:10.294Z,28.49
2023-04-24T19:24:38.819Z,28.48
2023-04-24T19:27:06.835Z,28.83
2023-04-24T19:29:36.337Z,28.53
2023-04-24T19:32:04.759Z,28.49
2023-04-24T19:34:34.535Z,28.69
2023-04-24T19:37:02.745Z,28.62
2023-04-24T19:39:32.423Z,28.91
2023-04-24T19:42:04.107Z,28.81
2023-04-24T19:44:33.239Z,28.69
2023-04-24T19:47:02.761Z,28.92
2023-04-24T19:49:37.076Z,28.90
2023-04-24T19:52:07.850Z,28.74
2023-04-24T19:54:35.802Z,28.69
2023-04-24T19:57:04.115Z,28.97
2023-04-24T19:59:34.000Z,28.79
2023-04-24T20:02:03.958Z,29.04
2023-04-24T20:04:32.118Z,28.80
2023-04-24T20:07:00.836Z,28.85
2023-04-24T20:09:30.431Z,29.06
2023-04-24T20:12:00.159Z,29.05
2023-04-24T20:14:28.250Z,29.08
2023-04-24T20:16:56.399Z,29.36
2023-04-24T20:19:25.905Z,29.37
2023-04-24T20:21:54.598Z,29.42
2023-04-24T20:24:22.704Z,29.15
2023-04-24T20:26:50.743Z,29.08
2023-04-24T20:29:18.869Z,29.22
2023-04-24T20:31:47.470Z,29.23
2023-04-24T20:34:15.597Z,29.35
2023-04-24T20:36:49.361Z,29.19
2023-04-24T20:39:19.244Z,29.55
2023-04-24T20:41:47.837Z,29.32
2023-04-24T20:44:16.076Z,29.49
2023-04-24T20:46:44.034Z,29.60
2023-04-24T20:49:12.194Z,29.53
2023-04-24T20:51:41.499Z,29.61
2023-04-24T20:54:10.987Z,29.63
2023-04-24T20:56:39.137Z,29.40
2023-04-24T20:59:07.295Z,29.66
2023-04-24T21:01:35.285Z,29.55
2023-04-24T21:04:03.461Z,29.63
2023-04-24T21:06:32.128Z,29.35
2023-04-24T21:09:00.550Z,29.49
2023-04-24T21:11:30.060Z,29.68
2023-04-24T21:13:58.216Z,29.59
2023-04-24T21:16:26.265Z,29.65
2023-04-24T21:18:54.314Z,29.54
2023-04-24T21:21:22.439Z,29.51
2023-04-24T21:23:50.591Z,29.50
2023-04-24T21:26:18.990Z,29.75
2023-04-24T21:28:48.556Z,29.83
2023-04-24T21:31:16.522Z,29.79
2023-04-24T21:33:44.624Z,29.75
2023-04-24T21:36:12.721Z,29.46
2023-04-24T21:38:41.213Z,29.46
2023-04-24T21:41:09.231Z,29.75
2023-04-24T21:43:44.717Z,29.57
2023-04-24T21:46:20.014Z,29.70
2023-04-24T21:48:48.036Z,29.75
2023-04-24T21:51:16.682Z,29.57
2023-04-24T21:53:44.717Z,29.84
2023-04-24T21:56:13.154Z,29.60
2023-04-24T21:58:41.288Z,29.93
2023-04-24T22:01:09.874Z,29.51
2023-04-24T22:03:39.472Z,29.81
2023-04-24T22:06:07.816Z,29.55
2023-04-24T22:08:36.424Z,29.59
2023-04-24T22:11:07.220Z,29.78
2023-04-24T22:13:39.412Z,29.67
2023-04-24T22:16:07.833Z,29.81
2023-04-24T22:18:46.618Z,29.70
2023-04-24T22:21:16.760Z,29.72
2023-04-24T22:23:44.782Z,29.65
2023-04-24T22:26:12.881Z,29.87
2023-04-24T22:28:40.975Z,29.91
2023-04-24T22:31:09.476Z,29.82
2023-04-24T22:33:37.463Z,29.75
2023-04-24T22:36:05.913Z,29.87
2023-04-24T22:38:35.269Z,29.77
2023-04-24T22:41:03.463Z,29.71
2023-04-24T22:43:31.809Z,29.67
2023-04-24T22:45:59.849Z,29.90
2023-04-24T22:48:28.096Z,29.72
2023-04-24T22:50:56.194Z,29.92
2023-04-24T22:53:24.199Z,29.73
2023-04-24T22:55:53.505Z,29.90
2023-04-24T22:58:21.506Z,29.63
2023-04-24T23:00:49.705Z,29.90
2023-04-24T23:03:17.949Z,29.60
2023-04-24T23:05:46.010Z,29.68
2023-04-24T23:08:13.960Z,29.56
2023-04-24T23:10:42.490Z,29.90
2023-04-24T23:13:11.898Z,29.59
2023-04-24T23:15:40.159Z,29.53
2023-04-24T23:18:08.181Z,29.84
2023-04-24T23:20:36.186Z,29.67
2023-04-24T23:23:04.189Z,29.67
2023-04-24T23:25:32.846Z,29.90
2023-04-24T23:28:00.827Z,30.00
2023-04-24T23:30:30.743Z,29.74
2023-04-24T23:32:58.821Z,29.67
2023-04-24T23:35:27.105Z,29.68
2023-04-24T23:37:56.193Z,29.71
2023-04-24T23:40:24.394Z,29.61
2023-04-24T23:43:05.716Z,29.84
2023-04-24T23:45:37.119Z,29.81
2023-04-24T23:48:05.937Z,29.92
2023-04-24T23:50:34.348Z,29.91
2023-04-24T23:53:02.677Z,29.77
2023-04-24T23:55:30.998Z,30.11
2023-04-24T23:57:59.106Z,30.02
